createdAt,value
2018-11-06T00:01:18.500Z,44.97
2018-11-06T00:03:49.254Z,39.13
2018-11-06T00:06:20.175Z,39.83
2018-11-06T00:08:50.093Z,37.03
2018-11-06T00:11:19.787Z,45.00
2018-11-06T00:13:49.272Z,43.57
2018-11-06T00:16:19.063Z,37.70
2018-11-06T00:18:53.331Z,34.60
2018-11-06T00:21:22.994Z,33.47
2018-11-06T00:23:53.543Z,39.13
2018-11-06T00:26:24.383Z,34.53
2018-11-06T00:28:54.260Z,32.57
2018-11-06T00:31:25.155Z,37.50
2018-11-06T00:33:56.085Z,38.70
2018-11-06T00:36:31.339Z,32.90
2018-11-06T00:39:02.288Z,42.30
2018-11-06T00:41:32.459Z,29.90
2018-11-06T00:44:07.539Z,33.20
2018-11-06T00:46:47.583Z,40.83
2018-11-06T00:49:17.433Z,34.13
2018-11-06T00:51:50.639Z,29.97
2018-11-06T00:54:20.475Z,29.10
2018-11-06T00:56:57.001Z,28.93
2018-11-06T00:59:26.868Z,34.23
2018-11-06T01:01:56.859Z,29.10
2018-11-06T01:04:28.711Z,33.10
2018-11-06T01:06:58.293Z,36.37
2018-11-06T01:09:30.083Z,33.10
2018-11-06T01:12:01.747Z,36.83
2018-11-06T01:14:32.287Z,30.07
2018-11-06T01:17:05.107Z,34.00
2018-11-06T01:19:34.964Z,34.10
2018-11-06T01:22:06.041Z,34.10
2018-11-06T01:24:35.915Z,35.40
2018-11-06T01:27:07.647Z,32.60
2018-11-06T01:29:37.187Z,38.07
2018-11-06T01:32:08.951Z,31.80
2018-11-06T01:34:38.843Z,31.60
2018-11-06T01:37:08.415Z,30.90
2018-11-06T01:39:40.235Z,35.03
2018-11-06T01:42:10.125Z,31.03
2018-11-06T01:44:39.723Z,25.60
2018-11-06T01:47:09.519Z,28.97
2018-11-06T01:49:42.723Z,37.47
2018-11-06T01:52:12.643Z,32.97
2018-11-06T01:54:42.583Z,30.90
2018-11-06T01:57:12.479Z,33.67
2018-11-06T01:59:49.187Z,35.97
2018-11-06T02:02:22.358Z,25.80
2018-11-06T02:04:51.959Z,28.87
2018-11-06T02:07:26.647Z,36.60
2018-11-06T02:09:56.271Z,33.83
2018-11-06T02:12:25.771Z,39.73
2018-11-06T02:14:55.579Z,38.70
2018-11-06T02:17:25.535Z,38.03
2018-11-06T02:19:56.495Z,37.57
2018-11-06T02:22:26.399Z,39.50
2018-11-06T02:24:57.183Z,35.60
2018-11-06T02:27:34.983Z,31.27
2018-11-06T02:30:05.687Z,30.40
2018-11-06T02:32:35.819Z,33.67
2018-11-06T02:35:07.664Z,36.03
2018-11-06T02:37:38.879Z,31.57
2018-11-06T02:40:14.144Z,23.97
2018-11-06T02:42:45.079Z,37.30
2018-11-06T02:45:18.407Z,31.57
2018-11-06T02:47:53.755Z,31.33
2018-11-06T02:50:24.648Z,28.70
2018-11-06T02:52:56.479Z,37.90
2018-11-06T02:55:26.787Z,29.47
2018-11-06T02:57:57.575Z,27.37
2018-11-06T03:00:27.571Z,31.17
2018-11-06T03:02:57.091Z,30.07
2018-11-06T03:05:27.659Z,26.07
2018-11-06T03:07:57.263Z,25.97
2018-11-06T03:10:26.943Z,23.83
2018-11-06T03:13:03.715Z,25.50
2018-11-06T03:15:33.691Z,23.47
2018-11-06T03:18:07.807Z,23.87
2018-11-06T03:22:59.871Z,27.40
2018-11-06T03:25:31.368Z,29.17
2018-11-06T03:28:02.132Z,28.33
2018-11-06T03:30:32.083Z,20.67
2018-11-06T03:33:01.680Z,23.17
2018-11-06T03:35:31.199Z,24.20
2018-11-06T03:38:05.004Z,18.43
2018-11-06T03:40:34.775Z,19.43
2018-11-06T03:43:04.475Z,28.83
2018-11-06T03:45:34.387Z,19.83
2018-11-06T03:48:05.019Z,22.67
2018-11-06T03:50:34.819Z,22.73
2018-11-06T03:53:04.708Z,17.63
2018-11-06T03:55:38.172Z,16.20
2018-11-06T03:58:09.799Z,17.53
2018-11-06T04:00:41.715Z,19.13
2018-11-06T04:03:11.436Z,26.00
2018-11-06T04:05:41.974Z,16.77
2018-11-06T04:08:11.767Z,15.83
2018-11-06T04:10:42.639Z,17.23
2018-11-06T04:13:12.315Z,15.97
2018-11-06T04:15:47.467Z,23.50
2018-11-06T04:18:17.311Z,18.37
2018-11-06T04:20:48.927Z,22.40
2018-11-06T04:23:19.699Z,22.13
2018-11-06T04:25:55.014Z,17.20
2018-11-06T04:28:26.903Z,18.73
2018-11-06T04:30:56.792Z,27.13
2018-11-06T04:33:30.877Z,18.03
2018-11-06T04:36:01.563Z,22.37
2018-11-06T04:38:32.490Z,16.63
2018-11-06T04:41:03.027Z,16.50
2018-11-06T04:43:33.599Z,20.90
2018-11-06T04:46:06.937Z,20.33
2018-11-06T04:48:36.704Z,17.33
2018-11-06T04:51:06.672Z,21.80
2018-11-06T04:53:40.867Z,22.20
2018-11-06T04:56:10.564Z,24.60
2018-11-06T04:58:40.612Z,18.63
2018-11-06T05:01:10.456Z,13.60
2018-11-06T05:03:44.456Z,15.23
2018-11-06T05:06:14.736Z,17.73
2018-11-06T05:08:49.188Z,16.60
2018-11-06T05:11:19.063Z,16.60
2018-11-06T05:13:49.912Z,20.73
2018-11-06T05:16:19.808Z,16.50
2018-11-06T05:18:50.628Z,16.90
2018-11-06T05:21:20.761Z,19.70
2018-11-06T05:23:50.752Z,13.50
2018-11-06T05:26:21.673Z,16.73
2018-11-06T05:28:57.139Z,15.33
2018-11-06T05:31:34.922Z,12.43
2018-11-06T05:34:04.696Z,19.37
2018-11-06T05:36:35.712Z,19.17
2018-11-06T05:39:08.628Z,15.20
2018-11-06T05:41:40.347Z,16.70
2018-11-06T05:44:09.981Z,18.67
2018-11-06T05:46:40.704Z,20.13
2018-11-06T05:49:10.392Z,16.60
2018-11-06T05:51:40.004Z,17.50
2018-11-06T05:54:09.843Z,14.67
2018-11-06T05:56:40.399Z,12.70
2018-11-06T05:59:12.033Z,17.53
2018-11-06T06:01:45.192Z,15.10
2018-11-06T06:04:15.976Z,19.80
2018-11-06T06:06:57.427Z,17.03
2018-11-06T06:09:30.467Z,22.23
2018-11-06T06:12:00.059Z,18.07
2018-11-06T06:14:34.188Z,14.77
2018-11-06T06:17:06.739Z,16.20
2018-11-06T06:19:39.924Z,13.90
2018-11-06T06:22:10.671Z,15.27
2018-11-06T06:24:42.516Z,10.60
2018-11-06T06:27:13.352Z,13.23
2018-11-06T06:29:43.184Z,25.63
2018-11-06T06:32:15.036Z,13.40
2018-11-06T06:34:44.956Z,10.13
2018-11-06T06:37:16.648Z,20.40
2018-11-06T06:39:46.536Z,11.67
2018-11-06T06:42:17.436Z,11.73
2018-11-06T06:44:47.340Z,12.10
2018-11-06T06:47:22.328Z,13.10
2018-11-06T06:49:52.216Z,17.90
2018-11-06T06:52:22.028Z,12.33
2018-11-06T06:54:57.774Z,15.60
2018-11-06T06:57:27.407Z,11.13
2018-11-06T06:59:57.352Z,16.40
2018-11-06T07:02:27.031Z,12.13
2018-11-06T07:04:56.588Z,12.93
2018-11-06T07:07:26.529Z,12.03
2018-11-06T07:09:58.136Z,11.23
2018-11-06T07:12:28.028Z,12.47
2018-11-06T07:14:57.911Z,11.80
2018-11-06T07:17:28.771Z,23.03
2018-11-06T07:19:58.424Z,10.70
2018-11-06T07:22:28.199Z,14.30
2018-11-06T07:24:58.228Z,11.80
2018-11-06T07:27:28.111Z,7.40
2018-11-06T07:29:57.934Z,12.37
2018-11-06T07:32:31.275Z,11.87
2018-11-06T07:35:00.971Z,14.70
2018-11-06T07:37:30.656Z,12.60
2018-11-06T07:40:01.212Z,10.67
2018-11-06T07:42:32.026Z,14.13
2018-11-06T07:45:01.647Z,15.70
2018-11-06T07:47:31.384Z,11.17
2018-11-06T07:50:01.123Z,11.10
2018-11-06T07:52:33.951Z,10.40
2018-11-06T07:55:03.776Z,13.60
2018-11-06T07:57:33.711Z,10.20
2018-11-06T08:00:03.571Z,19.33
2018-11-06T08:02:39.043Z,9.33
2018-11-06T08:05:08.836Z,10.23
2018-11-06T08:07:40.763Z,10.90
2018-11-06T08:10:12.579Z,9.97
2018-11-06T08:12:44.582Z,8.63
2018-11-06T08:15:14.585Z,22.53
2018-11-06T08:17:45.911Z,11.10
2018-11-06T08:20:19.430Z,9.30
2018-11-06T08:22:54.297Z,8.93
2018-11-06T08:25:25.984Z,18.93
2018-11-06T08:27:55.799Z,9.07
2018-11-06T08:30:27.636Z,11.80
2018-11-06T08:32:59.203Z,7.33
2018-11-06T08:35:34.768Z,11.77
2018-11-06T08:38:04.616Z,8.80
2018-11-06T08:40:34.544Z,10.03
2018-11-06T08:43:04.416Z,9.40
2018-11-06T08:45:34.223Z,6.00
2018-11-06T08:48:06.539Z,17.20
2018-11-06T08:50:43.045Z,19.77
2018-11-06T08:53:23.355Z,6.90
2018-11-06T08:55:59.688Z,8.60
2018-11-06T08:58:29.516Z,9.03
2018-11-06T09:00:59.066Z,11.17
2018-11-06T09:03:31.568Z,8.30
2018-11-06T09:06:01.156Z,8.20
2018-11-06T09:08:31.700Z,8.37
2018-11-06T09:11:01.228Z,7.00
2018-11-06T09:13:34.764Z,7.53
2018-11-06T09:16:10.119Z,7.10
2018-11-06T09:18:39.755Z,7.00
2018-11-06T09:21:13.423Z,5.43
2018-11-06T09:23:43.311Z,6.17
2018-11-06T09:26:19.972Z,6.50
2018-11-06T09:28:51.872Z,8.50
2018-11-06T09:31:21.736Z,6.10
2018-11-06T09:33:51.528Z,19.13
2018-11-06T09:36:21.720Z,4.90
2018-11-06T09:38:51.352Z,5.43
2018-11-06T09:41:21.174Z,9.37
2018-11-06T09:43:58.945Z,6.13
2018-11-06T09:46:28.851Z,5.53
2018-11-06T09:48:59.648Z,5.93
2018-11-06T09:51:30.548Z,7.30
2018-11-06T09:54:00.068Z,5.93
2018-11-06T09:56:29.808Z,17.83
2018-11-06T09:58:59.842Z,8.07
2018-11-06T10:01:29.543Z,6.03
2018-11-06T10:03:59.243Z,4.93
2018-11-06T10:06:29.923Z,6.10
2018-11-06T10:08:59.291Z,4.60
2018-11-06T10:11:32.368Z,3.77
2018-11-06T10:14:04.011Z,5.73
2018-11-06T10:16:34.007Z,7.10
2018-11-06T10:19:07.718Z,6.10
2018-11-06T10:21:38.568Z,7.40
2018-11-06T10:24:08.379Z,5.70
2018-11-06T10:26:53.075Z,5.40
2018-11-06T10:29:22.950Z,4.40
2018-11-06T10:31:52.576Z,3.67
2018-11-06T10:34:23.091Z,4.10
2018-11-06T10:36:52.903Z,5.20
2018-11-06T10:39:23.715Z,13.80
2018-11-06T10:41:54.383Z,6.30
2018-11-06T10:44:24.067Z,4.27
2018-11-06T10:46:53.747Z,4.20
2018-11-06T10:49:24.427Z,4.83
2018-11-06T10:51:57.118Z,3.70
2018-11-06T10:54:26.720Z,3.67
2018-11-06T10:56:56.607Z,4.70
2018-11-06T10:59:26.183Z,6.73
2018-11-06T11:02:01.174Z,6.07
2018-11-06T11:04:31.423Z,3.70
2018-11-06T11:07:01.071Z,6.93
2018-11-06T11:09:30.791Z,4.10
2018-11-06T11:12:00.371Z,6.10
2018-11-06T11:14:31.103Z,3.93
2018-11-06T11:17:00.615Z,3.37
2018-11-06T11:19:30.115Z,4.00
2018-11-06T11:21:59.831Z,4.50
2018-11-06T11:24:33.835Z,3.90
2018-11-06T11:27:03.505Z,5.80
2018-11-06T11:29:34.252Z,4.10
2018-11-06T11:32:03.792Z,6.53
2018-11-06T11:34:35.540Z,4.67
2018-11-06T11:37:05.377Z,4.37
2018-11-06T11:39:35.144Z,15.57
2018-11-06T11:42:05.444Z,4.33
2018-11-06T11:44:35.995Z,3.57
2018-11-06T11:47:05.780Z,4.37
2018-11-06T11:49:35.648Z,4.77
2018-11-06T11:52:05.476Z,7.20
2018-11-06T11:54:36.256Z,5.07
2018-11-06T11:57:07.129Z,5.40
2018-11-06T11:59:40.919Z,4.80
2018-11-06T12:02:13.838Z,4.00
2018-11-06T12:04:43.576Z,7.37
2018-11-06T12:07:15.424Z,3.10
2018-11-06T12:09:53.192Z,3.30
2018-11-06T12:12:22.896Z,12.63
2018-11-06T12:14:57.116Z,2.97
2018-11-06T12:17:31.299Z,5.03
2018-11-06T12:20:00.779Z,3.80
2018-11-06T12:22:40.475Z,3.60
2018-11-06T12:25:10.815Z,4.40
2018-11-06T12:27:40.515Z,6.17
2018-11-06T12:30:15.460Z,4.60
2018-11-06T12:32:46.270Z,4.83
2018-11-06T12:35:16.203Z,7.03
2018-11-06T12:37:50.203Z,3.50
2018-11-06T12:40:19.683Z,4.03
2018-11-06T12:42:49.455Z,4.97
2018-11-06T12:45:19.203Z,3.03
2018-11-06T12:47:49.980Z,3.80
2018-11-06T12:50:25.173Z,5.03
2018-11-06T12:52:54.918Z,4.60
2018-11-06T12:55:25.691Z,5.03
2018-11-06T12:57:55.539Z,10.73
2018-11-06T13:00:25.330Z,4.17
2018-11-06T13:02:59.179Z,4.03
2018-11-06T13:05:29.807Z,4.47
2018-11-06T13:07:59.418Z,4.43
2018-11-06T13:10:29.895Z,4.00
2018-11-06T13:13:00.352Z,6.97
2018-11-06T13:15:29.978Z,4.60
2018-11-06T13:17:59.453Z,3.40
2018-11-06T13:20:28.943Z,3.67
2018-11-06T13:22:58.412Z,3.67
2018-11-06T13:25:28.944Z,4.23
2018-11-06T13:27:59.636Z,4.23
2018-11-06T13:30:29.220Z,5.60
2018-11-06T13:32:58.935Z,5.80
2018-11-06T13:35:28.688Z,3.97
2018-11-06T13:37:58.479Z,6.43
2018-11-06T13:40:31.791Z,6.13
2018-11-06T13:43:01.433Z,4.30
2018-11-06T13:45:31.306Z,4.50
2018-11-06T13:48:00.665Z,6.00
2018-11-06T13:50:30.200Z,4.60
2018-11-06T13:53:00.691Z,5.53
2018-11-06T13:55:32.164Z,6.47
2018-11-06T13:58:01.656Z,5.37
2018-11-06T14:00:31.371Z,6.07
2018-11-06T14:03:00.944Z,6.70
2018-11-06T14:05:30.443Z,7.77
2018-11-06T14:08:00.020Z,4.70
2018-11-06T14:10:29.728Z,6.73
2018-11-06T14:12:59.599Z,5.73
2018-11-06T14:15:30.519Z,11.23
2018-11-06T14:18:00.380Z,7.40
2018-11-06T14:20:32.084Z,5.20
2018-11-06T14:23:01.557Z,8.63
2018-11-06T14:25:31.040Z,6.80
2018-11-06T14:28:00.752Z,8.30
2018-11-06T14:30:30.564Z,6.00
2018-11-06T14:33:00.364Z,9.30
2018-11-06T14:35:33.763Z,10.73
2018-11-06T14:38:04.235Z,6.70
2018-11-06T14:40:35.060Z,9.13
2018-11-06T14:43:08.048Z,7.30
2018-11-06T14:45:38.752Z,7.67
2018-11-06T14:48:10.591Z,9.10
2018-11-06T14:50:40.420Z,9.63
2018-11-06T14:53:10.244Z,14.33
2018-11-06T14:55:40.032Z,13.10
2018-11-06T14:58:09.909Z,11.90
2018-11-06T15:00:40.717Z,8.87
2018-11-06T15:03:10.640Z,9.57
2018-11-06T15:05:40.570Z,13.37
2018-11-06T15:08:11.392Z,11.10
2018-11-06T15:10:42.204Z,6.80
2018-11-06T15:13:18.935Z,12.13
2018-11-06T15:15:48.696Z,14.40
2018-11-06T15:18:22.128Z,9.17
2018-11-06T15:20:56.679Z,8.33
2018-11-06T15:23:26.520Z,10.43
2018-11-06T15:25:56.097Z,14.40
2018-11-06T15:28:25.820Z,9.17
2018-11-06T15:30:55.371Z,12.00
2018-11-06T15:33:25.170Z,16.33
2018-11-06T15:35:54.984Z,11.10
2018-11-06T15:38:24.876Z,9.70
2018-11-06T15:40:57.810Z,10.03
2018-11-06T15:43:28.500Z,12.63
2018-11-06T15:45:59.236Z,24.70
2018-11-06T15:48:29.195Z,16.20
2018-11-06T15:50:58.944Z,13.10
2018-11-06T15:53:28.704Z,11.07
2018-11-06T15:56:01.936Z,10.50
2018-11-06T15:58:43.364Z,10.57
2018-11-06T16:01:13.229Z,13.40
2018-11-06T16:03:45.929Z,11.63
2018-11-06T16:06:15.417Z,13.37
2018-11-06T16:08:46.139Z,14.30
2018-11-06T16:11:15.975Z,14.10
2018-11-06T16:13:46.796Z,14.20
2018-11-06T16:16:19.682Z,21.60
2018-11-06T16:18:50.608Z,14.60
2018-11-06T16:21:21.388Z,17.13
2018-11-06T16:23:51.280Z,14.93
2018-11-06T16:26:23.087Z,16.23
2018-11-06T16:28:57.288Z,17.60
2018-11-06T16:31:28.012Z,17.17
2018-11-06T16:33:57.903Z,26.73
2018-11-06T16:36:28.669Z,20.63
2018-11-06T16:38:58.363Z,14.57
2018-11-06T16:41:29.146Z,17.10
2018-11-06T16:43:59.932Z,17.43
2018-11-06T16:46:29.861Z,17.30
2018-11-06T16:48:59.648Z,20.73
2018-11-06T16:51:29.608Z,16.20
2018-11-06T16:53:59.404Z,14.97
2018-11-06T16:56:31.244Z,22.47
2018-11-06T16:59:01.136Z,18.27
2018-11-06T17:01:37.868Z,18.40
2018-11-06T17:04:07.410Z,15.07
2018-11-06T17:06:47.340Z,16.10
2018-11-06T17:09:21.939Z,15.00
2018-11-06T17:11:57.406Z,17.57
2018-11-06T17:14:27.956Z,22.37
2018-11-06T17:16:57.767Z,18.83
2018-11-06T17:19:32.016Z,14.00
2018-11-06T17:22:01.828Z,15.43
2018-11-06T17:24:32.648Z,17.50
2018-11-06T17:27:02.232Z,16.57
2018-11-06T17:29:31.931Z,17.90
2018-11-06T17:32:01.760Z,17.87
2018-11-06T17:34:32.564Z,20.60
2018-11-06T17:37:02.173Z,24.57
2018-11-06T17:39:32.976Z,16.33
2018-11-06T17:42:02.519Z,19.00
2018-11-06T17:44:33.068Z,26.90
2018-11-06T17:47:02.530Z,19.03
2018-11-06T17:49:32.271Z,22.13
2018-11-06T17:52:01.806Z,23.73
2018-11-06T17:54:31.392Z,18.20
2018-11-06T17:57:02.072Z,17.80
2018-11-06T17:59:38.858Z,23.70
2018-11-06T18:02:15.516Z,18.07
2018-11-06T18:04:48.464Z,20.60
2018-11-06T18:07:22.473Z,22.17
2018-11-06T18:09:52.076Z,20.67
2018-11-06T18:12:22.652Z,21.40
2018-11-06T18:14:52.545Z,18.10
2018-11-06T18:17:26.178Z,21.63
2018-11-06T18:19:55.720Z,18.00
2018-11-06T18:22:29.084Z,22.47
2018-11-06T18:25:02.526Z,21.60
2018-11-06T18:27:41.917Z,20.20
2018-11-06T18:30:18.232Z,20.40
2018-11-06T18:32:49.112Z,25.17
2018-11-06T18:35:19.388Z,18.67
2018-11-06T18:37:52.240Z,23.27
2018-11-06T18:40:21.892Z,22.07
2018-11-06T18:42:52.080Z,23.93
2018-11-06T18:45:23.927Z,21.00
2018-11-06T18:48:01.634Z,21.97
2018-11-06T18:50:32.528Z,27.93
2018-11-06T18:53:03.384Z,23.43
2018-11-06T18:55:35.420Z,21.07
2018-11-06T18:58:05.863Z,21.07
2018-11-06T19:00:36.629Z,23.10
2018-11-06T19:03:06.488Z,21.80
2018-11-06T19:05:36.316Z,24.03
2018-11-06T19:08:06.944Z,28.60
2018-11-06T19:10:36.761Z,19.43
2018-11-06T19:13:07.620Z,24.73
2018-11-06T19:15:37.504Z,20.67
2018-11-06T19:18:07.376Z,21.67
2018-11-06T19:20:37.031Z,21.40
2018-11-06T19:23:06.828Z,30.23
2018-11-06T19:25:36.776Z,23.80
2018-11-06T19:28:12.828Z,32.70
2018-11-06T19:30:43.765Z,20.73
2018-11-06T19:33:17.964Z,20.30
2018-11-06T19:35:49.624Z,24.20
2018-11-06T19:38:23.612Z,19.97
2018-11-06T19:40:56.728Z,21.30
2018-11-06T19:43:27.540Z,25.63
2018-11-06T19:46:00.532Z,23.80
2018-11-06T19:48:31.224Z,23.53
2018-11-06T19:51:01.104Z,22.93
2018-11-06T19:53:36.794Z,20.40
2018-11-06T19:56:20.937Z,21.80
2018-11-06T19:58:54.768Z,20.10
2018-11-06T20:01:24.508Z,21.63
2018-11-06T20:03:55.305Z,24.20
2018-11-06T20:06:28.212Z,21.30
2018-11-06T20:08:59.149Z,27.43
2018-11-06T20:11:39.735Z,24.23
2018-11-06T20:14:16.300Z,29.40
2018-11-06T20:16:46.980Z,22.97
2018-11-06T20:19:16.824Z,22.30
2018-11-06T20:21:51.208Z,26.00
2018-11-06T20:24:22.085Z,24.93
2018-11-06T20:26:56.520Z,28.10
2018-11-06T20:29:26.300Z,24.00
2018-11-06T20:31:56.025Z,24.93
2018-11-06T20:34:25.816Z,27.93
2018-11-06T20:36:55.725Z,30.80
2018-11-06T20:39:25.640Z,24.03
2018-11-06T20:42:00.736Z,26.73
2018-11-06T20:44:30.265Z,30.63
2018-11-06T20:47:00.812Z,22.20
2018-11-06T20:49:30.639Z,29.90
2018-11-06T20:52:00.432Z,21.87
2018-11-06T20:54:30.332Z,26.53
2018-11-06T20:57:00.277Z,25.33
2018-11-06T20:59:30.100Z,24.70
2018-11-06T21:02:01.928Z,26.70
2018-11-06T21:04:31.829Z,27.33
2018-11-06T21:07:02.743Z,23.57
2018-11-06T21:09:32.408Z,27.30
2018-11-06T21:12:03.076Z,22.93
2018-11-06T21:14:36.416Z,25.80
2018-11-06T21:17:06.245Z,27.20
2018-11-06T21:19:38.140Z,24.00
2018-11-06T21:22:14.468Z,29.90
2018-11-06T21:24:45.343Z,27.70
2018-11-06T21:27:15.302Z,23.37
2018-11-06T21:29:45.140Z,27.63
2018-11-06T21:32:14.944Z,27.87
2018-11-06T21:34:45.546Z,27.57
2018-11-06T21:37:15.112Z,26.83
2018-11-06T21:39:46.948Z,24.00
2018-11-06T21:42:18.801Z,30.93
2018-11-06T21:44:48.845Z,24.03
2018-11-06T21:47:18.713Z,27.33
2018-11-06T21:49:48.624Z,25.20
2018-11-06T21:52:20.425Z,23.73
2018-11-06T21:54:54.192Z,27.70
2018-11-06T21:57:24.120Z,24.53
2018-11-06T21:59:55.988Z,20.90
2018-11-06T22:02:25.848Z,27.97
2018-11-06T22:04:56.500Z,24.30
2018-11-06T22:07:26.149Z,27.80
2018-11-06T22:09:56.856Z,26.63
2018-11-06T22:12:26.793Z,26.47
2018-11-06T22:14:56.692Z,32.73
2018-11-06T22:17:27.520Z,29.50
2018-11-06T22:20:03.336Z,28.27
2018-11-06T22:22:33.149Z,25.40
2018-11-06T22:25:03.057Z,22.30
2018-11-06T22:27:32.993Z,24.77
2018-11-06T22:30:04.313Z,27.73
2018-11-06T22:32:35.117Z,23.20
2018-11-06T22:35:05.657Z,23.77
2018-11-06T22:37:39.273Z,25.90
2018-11-06T22:40:11.365Z,23.47
2018-11-06T22:42:44.160Z,39.07
2018-11-06T22:45:14.913Z,43.87
2018-11-06T22:47:44.680Z,46.50
2018-11-06T22:50:26.148Z,55.03
2018-11-06T22:53:01.601Z,48.27
2018-11-06T22:55:34.709Z,48.13
2018-11-06T22:58:04.337Z,33.40
2018-11-06T23:00:45.692Z,34.20
2018-11-06T23:03:16.548Z,35.63
2018-11-06T23:05:46.555Z,27.60
2018-11-06T23:08:26.773Z,22.13
2018-11-06T23:10:56.767Z,29.73
2018-11-06T23:13:26.645Z,25.50
2018-11-06T23:15:56.564Z,26.13
2018-11-06T23:18:26.473Z,23.67
2018-11-06T23:20:56.365Z,25.00
2018-11-06T23:23:26.193Z,29.73
2018-11-06T23:25:57.061Z,24.43
2018-11-06T23:28:26.972Z,29.47
2018-11-06T23:30:57.885Z,26.17
2018-11-06T23:33:27.788Z,29.90
2018-11-06T23:35:59.429Z,26.00
2018-11-06T23:38:29.936Z,25.80
2018-11-06T23:41:01.717Z,25.70
2018-11-06T23:43:33.569Z,27.93
2018-11-06T23:46:03.497Z,28.23
2018-11-06T23:48:35.232Z,28.40
2018-11-06T23:51:04.697Z,26.20
2018-11-06T23:53:34.409Z,23.92
2018-11-06T23:56:04.064Z,23.65
2018-11-06T23:58:34.645Z,27.53
